Skip to main content.
Our real time weather data display below is updated continuously via our 24/7 live data feed.
 TIME   TEMPERATURE   WINDSPEED   DIRECTION   HUMIDITY   BAROMETER   RAINFALL 
6:10 28.8°C (83.8°F) 11.1 kmh (6.9 mph) SW 79% 1012.2hPa (29.89 inHg) 0.0mm (0.00 in.)
5:10 28.9°C (84.0 °F) 9.3 kmh (5.8 mph) SSW 75% 1011.8hPa (29.88 inHg) 0.0mm (0.00 in.)
4:10 30.2°C (86.4 °F) 24.1 kmh (15.0 mph) S 66% 1012.0hPa (29.88 inHg) 0.0mm (0.00 in.)
3:10 31.3°C (88.3 °F) 14.8 kmh (9.2 mph) SSW 63% 1012.0hPa (29.88 inHg) 0.0mm (0.00 in.)
2:10 33.5°C (92.3 °F) 14.8 kmh (9.2 mph) SSE 47% 1012.8hPa (29.91 inHg) 0.0mm (0.00 in.)
1:10 33.6°C (92.5 °F) 11.1 kmh (6.9 mph) SE 35% 1013.3hPa (29.92 inHg) 0.0mm (0.00 in.)
12:10 31.8°C (89.2 °F) 3.7 kmh (2.3 mph) ENE 43% 1013.5hPa (29.93 inHg) 0.0mm (0.00 in.)
11:10 30.9°C (87.6 °F) 5.6 kmh (3.5 mph) ENE 53% 1013.7hPa (29.93 inHg) 0.0mm (0.00 in.)
10:10 30.1°C (86.2 °F) 5.6 kmh (3.5 mph) E 61% 1013.5hPa (29.93 inHg) 0.0mm (0.00 in.)
9:10 28.1°C (82.6 °F) 11.1 kmh (6.9 mph) ESE 72% 1013.1hPa (29.92 inHg) 0.0mm (0.00 in.)
8:10 26.9°C (80.4 °F) 5.6 kmh (3.5 mph) ESE 82% 1012.6hPa (29.90 inHg) 0.0mm (0.00 in.)
7:10 25.6°C (78.1 °F) 0.0 kmh (0.0 mph) E 87% 1012.2hPa (29.89 inHg) 0.0mm (0.00 in.)
6:10 24.8°C (76.6 °F) 0.0 kmh (0.0 mph) E 86% 1011.8hPa (29.88 inHg) 0.0mm (0.00 in.)
5:10 24.8°C (76.6 °F) 0.0 kmh (0.0 mph) E 86% 1011.5hPa (29.87 inHg) 0.0mm (0.00 in.)
4:10 24.6°C (76.3 °F) 1.9 kmh (1.2 mph) SE 91% 1011.0hPa (29.85 inHg) 0.0mm (0.00 in.)
3:10 25.0°C (77.0 °F) 1.9 kmh (1.2 mph) SSW 93% 1011.3hPa (29.86 inHg) 0.0mm (0.00 in.)
2:10 25.2°C (77.4 °F) 0.0 kmh (0.0 mph) SSW 92% 1011.7hPa (29.88 inHg) 0.0mm (0.00 in.)
1:10 25.4°C (77.7 °F) 1.9 kmh (1.2 mph) W 91% 1011.8hPa (29.88 inHg) 0.0mm (0.00 in.)
12:10 25.6°C (78.1 °F) 0.0 kmh (0.0 mph) W 91% 1011.5hPa (29.87 inHg) 0.0mm (0.00 in.)
11:10 25.8°C (78.4 °F) 0.0 kmh (0.0 mph) W 89% 1011.3hPa (29.86 inHg) 0.0mm (0.00 in.)
10:10 26.0°C (78.8 °F) 1.9 kmh (1.2 mph) NNW 88% 1011.4hPa (29.87 inHg) 0.0mm (0.00 in.)
9:10 25.9°C (78.6 °F) 5.6 kmh (3.5 mph) NNW 90% 1011.1hPa (29.86 inHg) 0.0mm (0.00 in.)
8:10 26.0°C (78.8 °F) 5.6 kmh (3.5 mph) N 90% 1010.8hPa (29.85 inHg) 0.0mm (0.00 in.)
7:10 26.3°C (79.3 °F) 14.8 kmh (9.2 mph) NNW 88% 1010.7hPa (29.85 inHg) 0.0mm (0.00 in.)